Terminal Aerodrome Forecast
Issued by NWS Twin Cities, MN

Home | Current Version | Previous Version | Graphics & Text | Print | Product List | Glossary Off
Versions: 1 2 3 4 5 6 7 8 9 10 11 12 13 14 15 16 17 18

000
FTUS43 KMPX 222300 RRA
TAFEAU
TAF
KEAU 222344Z 2300/2324 10009KT 6SM -RA BR OVC019
     FM230600 07012KT 5SM -SN BR OVC008
     FM231100 03014KT 1 1/2SM -SN BR OVC005
      TEMPO 2316/2320 1/2SM SN FG VV002
     FM232000 35012KT 3SM -SN OVC006=

USA.gov is the U.S. government's official web portal to all federal, state and local government web resources and services.